Time;durP1;ratioP1;P1;durP2;ratioP2;P2;SDS_P1;SDS_P2;PMS_P1;PMS_P2;Temp;Humidity;BMP_temperature;BMP_pressure;BME280_temperature;BME280_humidity;BME280_pressure;Samples;Min_cycle;Max_cycle;Signal;HPM_P1;HPM_P2
2021/11/10 00:01:53;;;;;;;3.97;1.98;;;;;;;;;;5120829;27;20558;-65
2021/11/10 00:04:21;;;;;;;5.20;2.25;;;;;;;;;;5103184;27;20028;-65
2021/11/10 00:06:47;;;;;;;4.43;2.13;;;;;;;;;;5120181;27;20016;-64
2021/11/10 00:09:13;;;;;;;2.95;1.77;;;;;;;;;;5121162;27;20035;-64
2021/11/10 00:11:39;;;;;;;1.95;1.67;;;;;;;;;;5121740;27;20012;-64
2021/11/10 00:14:05;;;;;;;3.63;1.70;;;;;;;;;;5119615;27;20015;-65
2021/11/10 00:16:37;;;;;;;2.63;1.58;;;;;;;;;;5119155;27;20027;-63
2021/11/10 00:19:04;;;;;;;2.72;1.70;;;;;;;;;;5122578;27;20022;-64
2021/11/10 00:21:31;;;;;;;2.58;1.63;;;;;;;;;;5120667;27;20051;-65
2021/11/10 00:23:57;;;;;;;2.15;1.80;;;;;;;;;;5121157;27;20020;-65
2021/11/10 00:26:23;;;;;;;2.67;1.63;;;;;;;;;;5118663;28;20015;-65
2021/11/10 00:28:50;;;;;;;2.72;1.85;;;;;;;;;;5119165;28;20030;-64
2021/11/10 00:31:16;;;;;;;2.42;1.80;;;;;;;;;;5121893;28;20042;-65
2021/11/10 00:33:43;;;;;;;4.15;2.13;;;;;;;;;;5118228;28;20011;-64
2021/11/10 00:36:09;;;;;;;2.33;1.88;;;;;;;;;;5120934;28;20039;-65
2021/11/10 00:38:36;;;;;;;2.08;1.40;;;;;;;;;;5119808;28;20386;-64
2021/11/10 00:41:03;;;;;;;2.70;1.50;;;;;;;;;;5122049;28;20023;-65
2021/11/10 00:43:29;;;;;;;3.92;1.92;;;;;;;;;;5120652;28;20019;-65
2021/11/10 00:45:56;;;;;;;1.90;1.67;;;;;;;;;;5114233;28;20093;-65
2021/11/10 00:48:22;;;;;;;2.95;1.70;;;;;;;;;;5112411;28;20027;-65
2021/11/10 00:50:48;;;;;;;2.80;1.60;;;;;;;;;;5111283;28;20027;-65
2021/11/10 00:53:14;;;;;;;2.83;1.60;;;;;;;;;;5111872;28;20020;-65
2021/11/10 00:55:41;;;;;;;2.10;1.70;;;;;;;;;;5110989;28;20023;-65
2021/11/10 00:58:08;;;;;;;4.43;2.65;;;;;;;;;;5121914;27;20023;-65
2021/11/10 01:00:35;;;;;;;5.43;2.00;;;;;;;;;;5136813;27;20106;-65
2021/11/10 01:03:01;;;;;;;4.68;2.17;;;;;;;;;;5135944;27;20015;-65
2021/11/10 01:05:28;;;;;;;2.55;1.50;;;;;;;;;;5136631;27;20039;-64
2021/11/10 01:07:55;;;;;;;3.30;1.70;;;;;;;;;;5135570;27;20007;-65
2021/11/10 01:10:21;;;;;;;3.67;2.03;;;;;;;;;;5136230;27;20531;-65
2021/11/10 01:12:48;;;;;;;3.72;2.08;;;;;;;;;;5134990;27;20363;-65
2021/11/10 01:15:16;;;;;;;3.30;1.92;;;;;;;;;;5134794;27;20019;-65
2021/11/10 01:17:42;;;;;;;3.55;1.98;;;;;;;;;;5133447;27;20144;-64
2021/11/10 01:20:09;;;;;;;2.17;1.42;;;;;;;;;;5115867;27;20027;-65
2021/11/10 01:22:35;;;;;;;2.58;1.95;;;;;;;;;;5127465;27;20022;-63
2021/11/10 01:25:01;;;;;;;2.58;1.75;;;;;;;;;;5135801;27;20108;-65
2021/11/10 01:27:27;;;;;;;3.15;1.55;;;;;;;;;;5135193;27;20019;-65
2021/11/10 01:29:53;;;;;;;3.72;1.52;;;;;;;;;;5116775;27;20597;-65
2021/11/10 01:32:19;;;;;;;2.72;1.90;;;;;;;;;;5135888;27;20041;-65
2021/11/10 01:34:46;;;;;;;2.33;1.65;;;;;;;;;;5135909;27;20499;-65
2021/11/10 01:37:12;;;;;;;2.90;1.80;;;;;;;;;;5114477;28;20132;-65
2021/11/10 01:39:38;;;;;;;2.80;1.83;;;;;;;;;;5094141;28;20021;-64
2021/11/10 01:42:05;;;;;;;2.55;2.03;;;;;;;;;;5095459;28;20023;-65
2021/11/10 01:44:33;;;;;;;1.73;1.50;;;;;;;;;;5094219;28;20020;-64
2021/11/10 01:46:59;;;;;;;2.67;1.85;;;;;;;;;;5094689;28;20091;-65
2021/11/10 01:49:26;;;;;;;3.13;1.90;;;;;;;;;;5095090;28;20051;-65
2021/11/10 01:51:53;;;;;;;2.15;1.50;;;;;;;;;;5094106;28;20020;-65
2021/11/10 01:54:20;;;;;;;1.92;1.70;;;;;;;;;;5094530;28;20360;-64
2021/11/10 01:56:46;;;;;;;2.42;1.58;;;;;;;;;;5093651;28;20047;-64
2021/11/10 01:59:27;;;;;;;3.40;1.70;;;;;;;;;;5112324;28;20035;-64
2021/11/10 02:01:53;;;;;;;2.95;1.90;;;;;;;;;;5115310;28;20022;-64
2021/11/10 02:04:19;;;;;;;2.13;1.40;;;;;;;;;;5114821;28;20051;-64
2021/11/10 02:06:45;;;;;;;3.05;1.80;;;;;;;;;;5113977;28;20441;-64
2021/11/10 02:09:11;;;;;;;2.75;1.55;;;;;;;;;;5097722;28;20039;-65
2021/11/10 02:11:39;;;;;;;3.22;1.85;;;;;;;;;;5093545;28;20024;-64
2021/11/10 02:14:06;;;;;;;2.08;1.40;;;;;;;;;;5093774;28;20067;-64
2021/11/10 02:16:32;;;;;;;3.47;1.73;;;;;;;;;;5094523;28;20026;-64
2021/11/10 02:18:58;;;;;;;2.50;1.70;;;;;;;;;;5092238;28;20157;-64
2021/11/10 02:21:24;;;;;;;2.83;1.85;;;;;;;;;;5094248;28;20098;-64
2021/11/10 02:23:51;;;;;;;2.65;2.13;;;;;;;;;;5093703;28;20050;-64
2021/11/10 02:26:22;;;;;;;3.95;1.67;;;;;;;;;;5094480;28;20354;-64
2021/11/10 02:28:49;;;;;;;1.58;1.40;;;;;;;;;;5093550;28;20024;-65
2021/11/10 02:31:16;;;;;;;3.35;1.75;;;;;;;;;;5094142;28;20024;-64
2021/11/10 02:33:43;;;;;;;2.67;1.70;;;;;;;;;;5093445;28;20024;-64
2021/11/10 02:36:10;;;;;;;2.67;1.63;;;;;;;;;;5106838;27;20043;-65
2021/11/10 02:38:36;;;;;;;2.85;1.83;;;;;;;;;;5128881;27;20413;-63
2021/11/10 02:41:02;;;;;;;4.35;2.05;;;;;;;;;;5134696;27;20023;-65
2021/11/10 02:43:28;;;;;;;2.63;1.55;;;;;;;;;;5134727;27;20019;-64
2021/11/10 02:45:55;;;;;;;5.80;3.33;;;;;;;;;;5132297;27;20360;-64
2021/11/10 02:48:21;;;;;;;2.60;1.42;;;;;;;;;;5134841;27;20102;-64
2021/11/10 02:50:49;;;;;;;3.80;2.00;;;;;;;;;;5134168;27;20023;-65
2021/11/10 02:53:15;;;;;;;3.47;1.90;;;;;;;;;;5133042;27;20026;-64
2021/11/10 02:55:41;;;;;;;2.58;1.73;;;;;;;;;;5129491;27;20015;-64
2021/11/10 02:58:07;;;;;;;2.53;1.85;;;;;;;;;;5116495;27;20102;-64
2021/11/10 03:00:33;;;;;;;4.30;2.53;;;;;;;;;;5134474;27;20094;-65
2021/11/10 03:03:02;;;;;;;2.30;1.85;;;;;;;;;;5132529;27;20023;-64
2021/11/10 03:05:28;;;;;;;2.05;1.85;;;;;;;;;;5114059;27;20018;-64
2021/11/10 03:07:54;;;;;;;2.75;2.05;;;;;;;;;;5122116;27;20007;-64
2021/11/10 03:10:21;;;;;;;3.38;1.80;;;;;;;;;;5121606;27;20034;-64
2021/11/10 03:12:47;;;;;;;2.97;1.60;;;;;;;;;;5122140;27;20090;-64
2021/11/10 03:15:14;;;;;;;2.50;1.70;;;;;;;;;;5122059;27;20023;-64
2021/11/10 03:17:40;;;;;;;2.75;1.45;;;;;;;;;;5120583;27;20025;-64
2021/11/10 03:20:07;;;;;;;2.78;1.70;;;;;;;;;;5120914;27;20341;-64
2021/11/10 03:22:33;;;;;;;2.15;1.70;;;;;;;;;;5118851;27;20098;-64
2021/11/10 03:25:00;;;;;;;3.05;1.65;;;;;;;;;;5121765;27;20027;-64
2021/11/10 03:27:26;;;;;;;1.70;1.40;;;;;;;;;;5121259;27;20484;-65
2021/11/10 03:29:53;;;;;;;2.42;1.52;;;;;;;;;;5120298;27;20043;-64
2021/11/10 03:32:20;;;;;;;2.97;1.65;;;;;;;;;;5121516;27;20019;-65
2021/11/10 03:34:46;;;;;;;3.92;2.10;;;;;;;;;;5122036;27;20172;-64
2021/11/10 03:37:12;;;;;;;2.53;1.52;;;;;;;;;;5123372;27;20046;-64
2021/11/10 03:39:38;;;;;;;2.00;1.63;;;;;;;;;;5120653;27;20034;-63
2021/11/10 03:42:05;;;;;;;2.90;2.00;;;;;;;;;;5122008;27;20370;-65
2021/11/10 03:44:31;;;;;;;2.13;1.55;;;;;;;;;;5123037;27;20023;-65
2021/11/10 03:46:57;;;;;;;4.05;1.95;;;;;;;;;;5121310;27;20018;-64
2021/11/10 03:49:25;;;;;;;3.25;1.80;;;;;;;;;;5119794;27;20035;-65
2021/11/10 03:51:52;;;;;;;3.78;1.52;;;;;;;;;;5121097;27;20011;-64
2021/11/10 03:54:18;;;;;;;2.70;1.60;;;;;;;;;;5122922;27;20515;-64
2021/11/10 03:56:45;;;;;;;2.47;1.63;;;;;;;;;;5119002;27;20039;-64
2021/11/10 03:59:11;;;;;;;3.20;1.88;;;;;;;;;;5121397;27;20068;-64
2021/11/10 04:01:43;;;;;;;2.20;1.52;;;;;;;;;;5122640;27;20026;-63
2021/11/10 04:04:10;;;;;;;;;;;;;;;;;;5122447;27;20412;-64
2021/11/10 04:06:38;;;;;;;2.97;1.40;;;;;;;;;;5119208;27;20434;-63
2021/11/10 04:09:05;;;;;;;2.72;1.55;;;;;;;;;;5120847;27;20026;-64
2021/11/10 04:11:31;;;;;;;2.42;1.70;;;;;;;;;;5103129;27;20359;-65
2021/11/10 04:13:57;;;;;;;2.85;1.67;;;;;;;;;;5122044;27;20107;-65
2021/11/10 04:16:24;;;;;;;2.75;1.70;;;;;;;;;;5120945;27;20022;-65
2021/11/10 04:18:51;;;;;;;2.70;1.80;;;;;;;;;;5119728;27;20024;-64
2021/11/10 04:21:18;;;;;;;4.35;1.98;;;;;;;;;;5120688;27;20068;-64
2021/11/10 04:23:46;;;;;;;3.55;2.28;;;;;;;;;;5118184;28;20023;-64
2021/11/10 04:26:12;;;;;;;2.47;1.48;;;;;;;;;;5118286;27;20035;-64
2021/11/10 04:28:40;;;;;;;2.30;2.00;;;;;;;;;;5122141;27;20015;-63
2021/11/10 04:31:07;;;;;;;3.83;1.90;;;;;;;;;;5120684;27;20393;-64
2021/11/10 04:33:33;;;;;;;2.50;1.77;;;;;;;;;;5102577;28;20024;-65
2021/11/10 04:35:59;;;;;;;4.47;1.65;;;;;;;;;;5118531;28;20621;-65
2021/11/10 04:38:25;;;;;;;2.22;1.80;;;;;;;;;;5119089;28;20024;-64
2021/11/10 04:40:52;;;;;;;3.13;1.73;;;;;;;;;;5119950;28;20097;-65
2021/11/10 04:43:18;;;;;;;2.35;1.58;;;;;;;;;;5121680;28;20016;-64
2021/11/10 04:45:46;;;;;;;2.90;2.15;;;;;;;;;;5119561;28;20038;-64
2021/11/10 04:48:12;;;;;;;2.15;1.38;;;;;;;;;;5102989;28;20659;-63
2021/11/10 04:50:43;;;;;;;3.63;2.42;;;;;;;;;;5122359;28;20034;-62
2021/11/10 04:53:10;;;;;;;2.15;1.73;;;;;;;;;;5118433;28;20046;-64
2021/11/10 04:55:41;;;;;;;2.25;1.60;;;;;;;;;;5131213;28;20023;-63
2021/11/10 04:58:07;;;;;;;3.13;1.93;;;;;;;;;;5112158;28;20050;-65
2021/11/10 05:00:33;;;;;;;2.88;2.03;;;;;;;;;;5111194;28;20722;-65
2021/11/10 05:02:59;;;;;;;2.63;1.98;;;;;;;;;;5111117;28;20023;-64
2021/11/10 05:05:27;;;;;;;3.42;2.20;;;;;;;;;;5112165;28;20448;-65
2021/11/10 05:07:53;;;;;;;2.22;1.63;;;;;;;;;;5111309;28;20094;-64
2021/11/10 05:10:19;;;;;;;3.25;2.00;;;;;;;;;;5112631;28;20038;-64
2021/11/10 05:12:45;;;;;;;2.22;1.70;;;;;;;;;;5111199;28;20020;-64
2021/11/10 05:15:11;;;;;;;2.45;1.70;;;;;;;;;;5112381;28;20020;-64
2021/11/10 05:17:39;;;;;;;2.83;1.70;;;;;;;;;;5110983;28;20011;-63
2021/11/10 05:20:06;;;;;;;2.28;1.63;;;;;;;;;;5112288;28;20030;-65
2021/11/10 05:22:32;;;;;;;2.55;1.88;;;;;;;;;;5115313;28;20028;-64
2021/11/10 05:24:59;;;;;;;3.70;2.35;;;;;;;;;;5111077;28;20031;-64
2021/11/10 05:27:25;;;;;;;2.40;1.80;;;;;;;;;;5125945;28;20475;-64
2021/11/10 05:29:51;;;;;;;2.05;1.38;;;;;;;;;;5121203;28;20084;-64
2021/11/10 05:32:17;;;;;;;3.10;1.92;;;;;;;;;;5111717;28;20046;-64
2021/11/10 05:34:43;;;;;;;5.35;1.85;;;;;;;;;;5109162;28;20096;-64
2021/11/10 05:37:09;;;;;;;2.92;1.80;;;;;;;;;;5111930;28;20048;-64
2021/11/10 05:39:35;;;;;;;3.53;1.90;;;;;;;;;;5111885;28;20051;-64
2021/11/10 05:42:01;;;;;;;3.45;1.90;;;;;;;;;;5111290;28;20016;-64
2021/11/10 05:44:27;;;;;;;2.47;1.88;;;;;;;;;;5115704;28;20015;-64
2021/11/10 05:46:53;;;;;;;2.58;1.90;;;;;;;;;;5124300;27;20042;-64
2021/11/10 05:49:19;;;;;;;2.13;1.40;;;;;;;;;;5136272;27;20097;-64
2021/11/10 05:51:46;;;;;;;2.92;1.85;;;;;;;;;;5135799;27;20015;-63
2021/11/10 05:54:13;;;;;;;3.60;1.98;;;;;;;;;;5136309;27;20023;-64
2021/11/10 05:56:42;;;;;;;2.30;2.00;;;;;;;;;;5128033;27;20645;-63
2021/11/10 05:59:09;;;;;;;2.67;1.90;;;;;;;;;;5115613;28;20023;-64
2021/11/10 06:01:35;;;;;;;2.53;1.70;;;;;;;;;;5115646;28;20054;-64
2021/11/10 06:04:01;;;;;;;3.17;2.08;;;;;;;;;;5114649;28;20069;-64
2021/11/10 06:06:28;;;;;;;2.42;1.83;;;;;;;;;;5120217;27;20015;-64
2021/11/10 06:08:54;;;;;;;3.65;2.10;;;;;;;;;;5125852;27;20022;-64
2021/11/10 06:11:21;;;;;;;2.45;1.83;;;;;;;;;;5115015;28;20036;-64
2021/11/10 06:13:47;;;;;;;2.95;2.00;;;;;;;;;;5114615;28;20137;-63
2021/11/10 06:16:13;;;;;;;3.10;1.80;;;;;;;;;;5119766;27;20140;-64
2021/11/10 06:18:39;;;;;;;3.33;1.92;;;;;;;;;;5135315;27;20027;-62
2021/11/10 06:21:06;;;;;;;3.95;2.35;;;;;;;;;;5135822;27;20030;-64
2021/11/10 06:23:32;;;;;;;2.45;1.70;;;;;;;;;;5115449;27;20044;-63
2021/11/10 06:25:58;;;;;;;2.80;1.85;;;;;;;;;;5129163;27;20015;-64
2021/11/10 06:28:24;;;;;;;2.53;1.88;;;;;;;;;;5114995;28;20097;-64
2021/11/10 06:30:50;;;;;;;2.33;1.80;;;;;;;;;;5113479;28;20028;-63
2021/11/10 06:33:17;;;;;;;2.83;1.50;;;;;;;;;;5114337;28;20103;-65
2021/11/10 06:35:44;;;;;;;2.75;1.65;;;;;;;;;;5113471;28;20047;-63
2021/11/10 06:38:10;;;;;;;3.30;1.80;;;;;;;;;;5115443;27;20012;-63
2021/11/10 06:40:36;;;;;;;4.15;2.70;;;;;;;;;;5114403;28;20548;-63
2021/11/10 06:43:03;;;;;;;3.75;1.95;;;;;;;;;;5111467;27;20035;-63
2021/11/10 06:45:29;;;;;;;4.50;2.20;;;;;;;;;;5114346;27;20122;-63
2021/11/10 06:47:55;;;;;;;3.42;1.70;;;;;;;;;;5116729;27;20091;-62
2021/11/10 06:50:21;;;;;;;3.05;1.80;;;;;;;;;;5114004;28;20023;-67
2021/11/10 06:52:47;;;;;;;6.18;2.45;;;;;;;;;;5121160;27;20106;-66
2021/11/10 06:55:14;;;;;;;5.85;2.35;;;;;;;;;;5133180;27;20027;-63
2021/11/10 06:57:40;;;;;;;4.00;2.03;;;;;;;;;;5134069;27;20023;-65
2021/11/10 07:00:08;;;;;;;4.30;1.98;;;;;;;;;;5112388;27;20022;-65
2021/11/10 07:02:34;;;;;;;5.22;2.05;;;;;;;;;;5124154;27;20113;-62
2021/11/10 07:05:00;;;;;;;5.22;1.90;;;;;;;;;;5123034;27;20015;-61
2021/11/10 07:07:26;;;;;;;6.72;1.70;;;;;;;;;;5134153;27;20015;-61
2021/11/10 07:09:52;;;;;;;7.85;2.13;;;;;;;;;;5133050;27;20028;-61
2021/11/10 07:12:19;;;;;;;4.60;2.10;;;;;;;;;;5130383;27;20042;-61
2021/11/10 07:14:46;;;;;;;3.80;2.08;;;;;;;;;;5112583;27;20023;-63
2021/11/10 07:17:12;;;;;;;4.40;2.08;;;;;;;;;;5113684;28;20016;-61
2021/11/10 07:19:38;;;;;;;2.85;2.20;;;;;;;;;;5113135;28;20023;-63
2021/11/10 07:22:04;;;;;;;7.65;2.20;;;;;;;;;;5114863;27;20590;-63
2021/11/10 07:24:31;;;;;;;4.45;2.75;;;;;;;;;;5114421;27;20368;-63
2021/11/10 07:26:57;;;;;;;4.07;1.98;;;;;;;;;;5112861;28;20023;-63
2021/11/10 07:29:23;;;;;;;3.65;1.98;;;;;;;;;;5113576;28;20016;-63
2021/11/10 07:31:49;;;;;;;3.63;2.20;;;;;;;;;;5113441;27;20353;-63
2021/11/10 07:34:16;;;;;;;4.85;2.63;;;;;;;;;;5071094;28;20422;-63
2021/11/10 07:36:42;;;;;;;5.20;2.00;;;;;;;;;;5131527;27;20043;-63
2021/11/10 07:39:10;;;;;;;3.63;1.95;;;;;;;;;;5133518;27;20026;-64
2021/11/10 07:41:37;;;;;;;3.08;1.83;;;;;;;;;;5134097;27;20156;-65
2021/11/10 07:44:03;;;;;;;4.90;2.17;;;;;;;;;;5130911;27;20459;-64
2021/11/10 07:46:31;;;;;;;4.97;3.25;;;;;;;;;;5133242;27;20027;-64
2021/11/10 07:49:02;;;;;;;11.50;7.78;;;;;;;;;;5125418;27;20027;-63
2021/11/10 07:51:29;;;;;;;12.35;8.35;;;;;;;;;;5120296;27;20027;-64
2021/11/10 07:53:55;;;;;;;11.45;7.32;;;;;;;;;;5106562;27;20030;-64
2021/11/10 07:56:22;;;;;;;13.45;8.23;;;;;;;;;;5125745;27;20107;-64
2021/11/10 07:58:49;;;;;;;14.57;8.38;;;;;;;;;;5117731;27;20023;-60
2021/11/10 08:01:16;;;;;;;12.00;6.82;;;;;;;;;;5127333;27;20525;-62
2021/11/10 08:03:42;;;;;;;10.13;5.80;;;;;;;;;;5115153;27;20016;-62
2021/11/10 08:06:08;;;;;;;10.50;6.38;;;;;;;;;;5112160;27;20536;-62
2021/11/10 08:08:34;;;;;;;8.27;5.68;;;;;;;;;;5124386;27;20394;-62
2021/11/10 08:11:01;;;;;;;10.77;5.68;;;;;;;;;;5116496;27;20112;-62
2021/11/10 08:13:29;;;;;;;10.18;5.18;;;;;;;;;;5126447;27;20033;-62
2021/11/10 08:15:56;;;;;;;7.88;4.88;;;;;;;;;;5116884;27;20048;-62
2021/11/10 08:18:22;;;;;;;9.50;4.57;;;;;;;;;;5130871;27;20083;-62
2021/11/10 08:20:50;;;;;;;8.63;4.45;;;;;;;;;;5129725;27;20027;-60
2021/11/10 08:23:20;;;;;;;6.18;4.15;;;;;;;;;;5125783;27;20019;-62
2021/11/10 08:25:54;;;;;;;7.50;4.88;;;;;;;;;;5121041;27;20060;-60
2021/11/10 08:28:21;;;;;;;6.20;3.90;;;;;;;;;;5130807;27;20023;-62
2021/11/10 08:30:54;;;;;;;6.95;4.57;;;;;;;;;;5128676;28;20106;-60
2021/11/10 08:33:20;;;;;;;6.90;3.95;;;;;;;;;;5114057;28;20015;-62
2021/11/10 08:35:47;;;;;;;5.75;3.55;;;;;;;;;;5125036;28;20035;-61
2021/11/10 08:38:13;;;;;;;6.95;4.15;;;;;;;;;;5122082;28;20019;-62
2021/11/10 08:40:40;;;;;;;6.88;4.05;;;;;;;;;;5121204;28;20038;-62
2021/11/10 08:43:09;;;;;;;8.07;3.78;;;;;;;;;;5111416;28;20076;-62
2021/11/10 08:45:38;;;;;;;7.32;3.80;;;;;;;;;;5114011;28;20035;-62
2021/11/10 08:48:05;;;;;;;5.13;3.25;;;;;;;;;;5111397;28;20019;-62
2021/11/10 08:50:33;;;;;;;5.28;3.03;;;;;;;;;;5117368;28;20063;-62
2021/11/10 08:53:00;;;;;;;5.72;3.58;;;;;;;;;;5112637;28;20464;-62
2021/11/10 08:55:26;;;;;;;7.22;3.40;;;;;;;;;;5112202;28;20058;-62
2021/11/10 08:57:52;;;;;;;5.80;3.90;;;;;;;;;;5110883;28;20019;-60
2021/11/10 09:00:21;;;;;;;5.50;2.95;;;;;;;;;;5113326;28;20038;-62
2021/11/10 09:02:47;;;;;;;4.68;3.63;;;;;;;;;;5116043;28;20053;-62
2021/11/10 09:05:14;;;;;;;7.57;4.35;;;;;;;;;;5130352;28;20251;-62
2021/11/10 09:07:40;;;;;;;5.63;2.88;;;;;;;;;;5130491;28;20025;-62
2021/11/10 09:10:08;;;;;;;4.88;3.33;;;;;;;;;;5125278;28;20023;-62
2021/11/10 09:12:34;;;;;;;5.47;3.88;;;;;;;;;;5119825;28;20019;-62
2021/11/10 09:15:01;;;;;;;5.28;3.38;;;;;;;;;;5112125;28;20027;-62
2021/11/10 09:17:34;;;;;;;5.03;3.25;;;;;;;;;;5112687;28;20023;-62
2021/11/10 09:20:00;;;;;;;5.10;3.38;;;;;;;;;;5129001;27;20023;-62
2021/11/10 09:22:26;;;;;;;5.10;3.30;;;;;;;;;;5121025;27;20515;-62
2021/11/10 09:24:54;;;;;;;5.75;3.05;;;;;;;;;;5135316;27;20068;-60
2021/11/10 09:27:20;;;;;;;6.57;3.72;;;;;;;;;;5122094;27;20064;-62
2021/11/10 09:29:46;;;;;;;7.18;3.55;;;;;;;;;;5122676;27;20438;-62
2021/11/10 09:32:12;;;;;;;6.32;2.95;;;;;;;;;;5134716;27;20259;-62
2021/11/10 09:34:39;;;;;;;5.80;3.28;;;;;;;;;;5135654;27;20047;-62
2021/11/10 09:37:05;;;;;;;5.32;3.58;;;;;;;;;;5131122;27;20451;-62
2021/11/10 09:39:31;;;;;;;3.92;2.80;;;;;;;;;;5123357;27;20030;-62
2021/11/10 09:41:57;;;;;;;4.60;3.10;;;;;;;;;;5134581;27;20102;-62
2021/11/10 09:44:24;;;;;;;4.07;2.60;;;;;;;;;;5135502;27;20023;-62
2021/11/10 09:46:54;;;;;;;4.45;3.10;;;;;;;;;;5122577;27;20119;-60
2021/11/10 09:49:20;;;;;;;7.82;3.63;;;;;;;;;;5125008;27;20030;-62
2021/11/10 09:51:46;;;;;;;5.28;3.28;;;;;;;;;;5125463;27;20027;-62
2021/11/10 09:54:13;;;;;;;4.05;2.75;;;;;;;;;;5128496;27;20019;-62
2021/11/10 09:56:40;;;;;;;4.72;3.30;;;;;;;;;;5125997;27;20110;-62
2021/11/10 09:59:06;;;;;;;5.20;3.47;;;;;;;;;;5126413;27;20020;-62
2021/11/10 10:01:34;;;;;;;4.05;2.63;;;;;;;;;;5122938;27;20038;-62
2021/11/10 10:04:00;;;;;;;4.10;2.97;;;;;;;;;;5120702;27;20301;-62
2021/11/10 10:06:27;;;;;;;4.78;3.28;;;;;;;;;;5112761;27;20023;-62
2021/11/10 10:08:56;;;;;;;4.43;2.65;;;;;;;;;;5125703;27;20023;-60
2021/11/10 10:11:22;;;;;;;4.05;2.65;;;;;;;;;;5120113;27;20414;-60
2021/11/10 10:13:48;;;;;;;5.80;2.90;;;;;;;;;;5118322;27;20527;-62
2021/11/10 10:16:21;;;;;;;4.13;3.05;;;;;;;;;;5121403;27;20027;-62
2021/11/10 10:18:48;;;;;;;4.47;2.72;;;;;;;;;;5114630;28;20034;-62
2021/11/10 10:21:17;;;;;;;4.43;2.70;;;;;;;;;;5114571;27;20108;-62
2021/11/10 10:23:45;;;;;;;4.20;2.60;;;;;;;;;;5130159;27;20012;-62
2021/11/10 10:26:19;;;;;;;5.32;3.05;;;;;;;;;;5132216;27;20023;-62
2021/11/10 10:28:48;;;;;;;6.38;2.83;;;;;;;;;;5119585;27;20026;-62
2021/11/10 10:31:19;;;;;;;3.70;2.78;;;;;;;;;;5106733;27;20143;-62
2021/11/10 10:33:46;;;;;;;4.50;3.00;;;;;;;;;;5120038;27;20521;-62
2021/11/10 10:36:14;;;;;;;4.90;3.10;;;;;;;;;;5125099;27;20065;-62
2021/11/10 10:38:46;;;;;;;3.45;2.42;;;;;;;;;;5119378;27;20015;-62
2021/11/10 10:41:12;;;;;;;3.88;2.67;;;;;;;;;;5114425;27;20007;-62
2021/11/10 10:43:40;;;;;;;5.40;3.40;;;;;;;;;;5115127;27;20020;-61
2021/11/10 10:46:06;;;;;;;4.82;2.70;;;;;;;;;;5125429;27;20043;-62
2021/11/10 10:48:32;;;;;;;4.28;2.97;;;;;;;;;;5122389;27;20435;-62
2021/11/10 10:51:06;;;;;;;3.83;2.58;;;;;;;;;;5128911;27;20033;-61
2021/11/10 10:53:32;;;;;;;3.78;2.53;;;;;;;;;;5133872;27;20080;-62
2021/11/10 10:55:58;;;;;;;5.60;2.97;;;;;;;;;;5132133;27;20031;-62
2021/11/10 10:58:32;;;;;;;3.95;2.78;;;;;;;;;;5115618;27;20023;-62
2021/11/10 11:00:59;;;;;;;5.13;2.80;;;;;;;;;;5122169;27;20015;-60
2021/11/10 11:03:26;;;;;;;4.45;3.13;;;;;;;;;;5115921;27;20064;-62
2021/11/10 11:05:53;;;;;;;5.10;3.55;;;;;;;;;;5113996;27;20054;-62
2021/11/10 11:08:37;;;;;;;5.03;3.03;;;;;;;;;;5130062;27;20038;-62
2021/11/10 11:11:31;;;;;;;4.63;2.90;;;;;;;;;;5130437;27;20031;-62
2021/11/10 11:14:00;;;;;;;4.90;2.83;;;;;;;;;;5114472;27;20015;-60
2021/11/10 11:16:35;;;;;;;4.70;2.92;;;;;;;;;;5113728;27;20019;-62
2021/11/10 11:19:33;;;;;;;4.30;2.70;;;;;;;;;;5112717;28;20020;-62
2021/11/10 11:22:00;;;;;;;3.05;2.25;;;;;;;;;;5099365;27;20031;-62
2021/11/10 11:24:30;;;;;;;3.75;2.83;;;;;;;;;;5115473;27;20011;-62
2021/11/10 11:27:17;;;;;;;5.00;2.80;;;;;;;;;;5133575;27;20024;-60
2021/11/10 11:29:44;;;;;;;4.35;3.00;;;;;;;;;;5132956;27;20035;-62
2021/11/10 11:32:25;;;;;;;4.68;2.88;;;;;;;;;;5131695;27;20502;-62
2021/11/10 11:35:11;;;;;;;3.75;2.65;;;;;;;;;;5122770;27;20050;-61
2021/11/10 11:37:38;;;;;;;3.38;2.30;;;;;;;;;;5112873;28;20044;-62
2021/11/10 11:40:06;;;;;;;4.30;2.88;;;;;;;;;;5112809;28;20512;-62
2021/11/10 11:42:32;;;;;;;2.90;2.40;;;;;;;;;;5120689;27;20027;-62
2021/11/10 11:44:58;;;;;;;5.88;2.95;;;;;;;;;;5127139;27;20480;-62
2021/11/10 11:47:25;;;;;;;4.25;3.17;;;;;;;;;;5133668;27;20105;-62
2021/11/10 11:49:52;;;;;;;4.30;2.85;;;;;;;;;;5132147;27;20027;-62
2021/11/10 11:52:21;;;;;;;3.92;2.80;;;;;;;;;;5129469;27;20099;-62
2021/11/10 11:54:49;;;;;;;4.20;2.78;;;;;;;;;;5115620;27;20030;-64
2021/11/10 11:57:18;;;;;;;4.70;2.83;;;;;;;;;;5126165;27;20114;-65
2021/11/10 11:59:46;;;;;;;3.78;2.55;;;;;;;;;;5121828;27;20072;-63
2021/11/10 12:02:19;;;;;;;3.42;2.33;;;;;;;;;;5122565;27;20019;-63
2021/11/10 12:04:46;;;;;;;4.50;3.22;;;;;;;;;;5132810;27;20420;-63
2021/11/10 12:07:12;;;;;;;3.50;2.40;;;;;;;;;;5119640;27;20015;-63
2021/11/10 12:09:38;;;;;;;5.47;3.22;;;;;;;;;;5132460;27;20021;-62
2021/11/10 12:12:11;;;;;;;4.28;2.58;;;;;;;;;;5121229;27;20019;-63
2021/11/10 12:14:38;;;;;;;4.97;3.13;;;;;;;;;;5131387;27;20027;-63
2021/11/10 12:17:04;;;;;;;4.57;3.05;;;;;;;;;;5131978;27;20015;-63
2021/11/10 12:19:34;;;;;;;4.22;2.63;;;;;;;;;;5132701;27;20051;-63
2021/11/10 12:22:04;;;;;;;4.53;2.67;;;;;;;;;;5126504;27;20449;-61
2021/11/10 12:24:41;;;;;;;4.07;3.03;;;;;;;;;;5115922;27;20023;-63
2021/11/10 12:27:16;;;;;;;5.18;3.22;;;;;;;;;;5112496;27;20026;-63
2021/11/10 12:29:43;;;;;;;3.17;2.65;;;;;;;;;;5128354;28;20414;-63
2021/11/10 12:32:09;;;;;;;4.93;2.58;;;;;;;;;;5127340;28;20539;-63
2021/11/10 12:34:38;;;;;;;4.95;2.90;;;;;;;;;;5111906;28;20031;-63
2021/11/10 12:37:05;;;;;;;3.75;2.50;;;;;;;;;;5111445;28;20134;-63
2021/11/10 12:39:33;;;;;;;3.90;2.53;;;;;;;;;;5111973;28;20046;-63
2021/11/10 12:42:17;;;;;;;3.50;2.70;;;;;;;;;;5114638;28;20529;-62
2021/11/10 12:44:48;;;;;;;5.80;2.78;;;;;;;;;;5132399;28;20027;-62
2021/11/10 12:47:16;;;;;;;3.38;2.70;;;;;;;;;;5131005;28;20516;-63
2021/11/10 12:49:45;;;;;;;4.55;2.70;;;;;;;;;;5123911;28;20039;-63
2021/11/10 12:52:12;;;;;;;4.55;3.08;;;;;;;;;;5099912;27;20340;-63
2021/11/10 12:54:39;;;;;;;4.57;2.88;;;;;;;;;;5136466;27;20022;-61
2021/11/10 12:57:06;;;;;;;4.65;2.95;;;;;;;;;;5133873;27;20054;-63
2021/11/10 12:59:36;;;;;;;4.63;2.55;;;;;;;;;;5135539;27;20460;-63
2021/11/10 13:02:21;;;;;;;4.60;3.00;;;;;;;;;;5130255;27;20106;-61
2021/11/10 13:04:51;;;;;;;3.55;2.53;;;;;;;;;;5117357;27;20012;-63
2021/11/10 13:07:21;;;;;;;3.25;2.38;;;;;;;;;;5115309;28;20016;-63
2021/11/10 13:09:49;;;;;;;3.67;2.60;;;;;;;;;;5116785;27;20080;-63
2021/11/10 13:12:17;;;;;;;3.95;2.65;;;;;;;;;;5126370;27;20019;-62
2021/11/10 13:14:48;;;;;;;3.72;2.78;;;;;;;;;;5123687;27;20027;-63
2021/11/10 13:17:32;;;;;;;4.28;2.70;;;;;;;;;;5134598;27;20030;-63
2021/11/10 13:19:59;;;;;;;13.25;3.47;;;;;;;;;;5126289;27;20057;-61
2021/11/10 13:22:28;;;;;;;3.72;2.80;;;;;;;;;;5124553;27;20042;-63
2021/11/10 13:24:58;;;;;;;3.50;2.40;;;;;;;;;;5131616;27;20049;-63
2021/11/10 13:27:54;;;;;;;3.85;2.67;;;;;;;;;;5135113;27;20062;-63
2021/11/10 13:30:27;;;;;;;5.07;2.63;;;;;;;;;;5103524;27;20058;-63
2021/11/10 13:32:53;;;;;;;4.18;2.75;;;;;;;;;;5133982;27;20019;-63
2021/11/10 13:35:19;;;;;;;4.38;2.65;;;;;;;;;;5128055;27;20048;-63
2021/11/10 13:37:50;;;;;;;4.32;2.50;;;;;;;;;;5136390;27;20019;-63
2021/11/10 13:40:17;;;;;;;5.13;2.83;;;;;;;;;;5133667;27;20094;-63
2021/11/10 13:42:47;;;;;;;4.65;2.70;;;;;;;;;;5135328;27;20023;-62
2021/11/10 13:45:17;;;;;;;2.97;2.47;;;;;;;;;;5124220;27;20015;-63
2021/11/10 13:47:54;;;;;;;4.72;2.75;;;;;;;;;;5116945;27;20015;-63
2021/11/10 13:50:20;;;;;;;3.92;2.58;;;;;;;;;;5132649;27;20371;-63
2021/11/10 13:52:46;;;;;;;3.55;3.03;;;;;;;;;;5130668;27;20421;-63
2021/11/10 13:55:13;;;;;;;6.70;3.22;;;;;;;;;;5114262;27;20561;-62
2021/11/10 13:57:40;;;;;;;6.10;2.55;;;;;;;;;;5112197;27;20036;-63
2021/11/10 14:00:08;;;;;;;3.95;3.13;;;;;;;;;;5115409;27;20023;-63
2021/11/10 14:02:36;;;;;;;4.30;2.45;;;;;;;;;;5127019;27;20051;-63
2021/11/10 14:05:11;;;;;;;4.95;2.70;;;;;;;;;;5115430;27;20101;-61
2021/11/10 14:07:38;;;;;;;5.63;3.00;;;;;;;;;;5114515;28;20024;-63
2021/11/10 14:10:09;;;;;;;3.70;2.80;;;;;;;;;;5115317;27;20032;-61
2021/11/10 14:12:35;;;;;;;5.18;2.95;;;;;;;;;;5096427;28;20077;-63
2021/11/10 14:15:14;;;;;;;4.72;2.50;;;;;;;;;;5125830;27;20410;-61
2021/11/10 14:18:01;;;;;;;3.53;2.80;;;;;;;;;;5119283;27;20047;-63
2021/11/10 14:20:34;;;;;;;3.75;2.60;;;;;;;;;;5124385;27;20363;-63
2021/11/10 14:23:07;;;;;;;4.18;2.60;;;;;;;;;;5126367;27;20463;-63
2021/11/10 14:25:38;;;;;;;5.32;3.35;;;;;;;;;;5134715;27;20106;-63
2021/11/10 14:28:06;;;;;;;3.97;2.80;;;;;;;;;;5132628;27;20029;-61
2021/11/10 14:30:37;;;;;;;4.70;3.25;;;;;;;;;;5124013;27;20039;-63
2021/11/10 14:33:06;;;;;;;4.07;2.67;;;;;;;;;;5127789;27;20023;-61
2021/11/10 14:35:40;;;;;;;4.13;3.25;;;;;;;;;;5134037;27;20468;-64
2021/11/10 14:38:07;;;;;;;3.05;2.42;;;;;;;;;;5095379;28;20020;-61
2021/11/10 14:40:40;;;;;;;4.90;2.72;;;;;;;;;;5114179;28;20025;-63
2021/11/10 14:43:19;;;;;;;4.13;2.67;;;;;;;;;;5094330;28;20027;-61
2021/11/10 14:45:45;;;;;;;5.70;3.22;;;;;;;;;;5114955;27;20068;-63
2021/11/10 14:48:11;;;;;;;5.03;3.35;;;;;;;;;;5133432;27;20105;-63